Spotswood, New Jersey
Current Conditions -  °F | °C
As of 1:35 PM on Friday 28 Nov 2014 (Local Time) from KLDJ Reporting Station
Scattered Clouds Scattered Clouds  
Wind Chill: 33°   Ceiling: Unl
Heat Index: 41°   Visibility: 10mi
Dew Point: 19°   Wind: 15mph
Humidity: 42%   Direction: 320°NW
Pressure: 30.19"   Gusts: 23mph
Location:  40.4°N, 74.39°W
Report Text: KLDJ 281835Z AUTO 32013G20KT 10SM SCT048 05/M07 A3019 RMK AO2 T00501071
Loading
Personal Weather Stations






























Interactive Weather Map New forecast layout! Learn more

10-Day Weather Forecast

Advertisements
Track Severe Weather on mobile